*** The Vicarage Weather Feed ***

Nearby METAR Reports


 

CYOO - Oshawa, Municipal Airport, Ontario, Canada
Distance from station: NW 3.2km
Updated: 16/08/2018 07:00
Clear
Clear
 Wind from N
Wind: N 4 km/h
Temperature: 20°C
Dew Point: 19°C
Humidity: 94%
Barometer: 1016.9 hPa
Clouds: Clear
Visibility: 11 km
2018/08/16 11:00 CYOO 161100Z AUTO 01002KT 7SM CLR 20/19 A3003 RMK SLP167 DENSITY ALT 900FT
CYKZ - Toronto, Buttonville, Municipal Airport, Ontario, Canada
Distance from station: W 39.75km
Updated: 16/08/2018 07:00
Clear
Clear
 Wind from calm
Wind: Calm
Temperature: 20°C
Dew Point: 18°C
Humidity: 88%
Barometer: 1017.3 hPa
Clouds: Clear
Visibility: 16 km
2018/08/16 11:00 CYKZ 161100Z 00000KT 10SM SKC 20/18 A3004 RMK SLP170 DENSITY ALT 1200FT
 
CXTO - Toronto City, Buttonville, Ontario, Canada
Distance from station: WSW 49km
Updated: 16/08/2018 07:00

 
Temperature: 22°C
Dew Point: 18°C
Humidity: 78%
2018/08/16 11:00 CXTO 161100Z AUTO 22/18 RMK AO1 SLP166 T02200179 53009
CYTZ - Toronto City, Island Airport, Ontario, Canada
Distance from station: SW 51.7km
Updated: 16/08/2018 07:00
Mist, Clear
Mist, Clear
 Wind from SSW
Wind: SSW 4 km/h
Temperature: 22°C
Dew Point: 20°C
Humidity: 88%
Barometer: 1016.6 hPa
Summary: Mist
Clouds: Clear
Visibility: 10 km
2018/08/16 11:00 CYTZ 161100Z AUTO 20002KT 6SM BR CLR 22/20 A3002 RMK SLP165 DENSITY ALT 900FT
 
CYPQ - Toronto, Peterborough Airport, Ontario, Canada
Distance from station: NE 54km
Updated: 16/08/2018 07:00
Mist, Overcast
Mist, Overcast
 Wind from calm
Wind: Calm
Temperature: 17°C
Dew Point: 17°C
Humidity: 100%
Barometer: 1017.6 hPa
Summary: Mist
Clouds: Overcast
Visibility: 10 km
Cloud details: Overcast 1981 m
2018/08/16 11:00 CYPQ 161100Z AUTO 00000KT 6SM BR OVC065 17/17 A3005 RMK SLP175 DENSITY ALT 800FT
CWNC - Cobourg, (mars), Ontario, Canada
Distance from station: E 57km
Updated: 16/08/2018 07:00

 Wind from NE
Wind: NE 6 km/h
Temperature: 20°C
Dew Point: 18°C
Humidity: 88%
2018/08/16 11:00 CWNC 161100Z AUTO 04003KT 20/18 RMK AO1 SLP164 T02000183 53013
 
CYYZ - Toronto, Lester Pearson Airport, Ontario, Canada
Distance from station: W 65.5km
Updated: 16/08/2018 07:00
Clear
Clear
 Wind from NE
Wind: NE 7 km/h
Temperature: 22°C
Dew Point: 18°C
Humidity: 78%
Barometer: 1016.6 hPa
Clouds: Clear
Visibility: 16 km
2018/08/16 11:00 CYYZ 161100Z 05004KT 10SM SKC 22/18 A3002 RMK SLP166 DENSITY ALT 1400FT
CWGL - Lagoon City, Ontario, Canada
Distance from station: NNW 74km
Updated: 16/08/2018 07:00

 Wind from E
Wind: E 9 km/h
Temperature: 19°C
Dew Point: 18°C
Humidity: 94%
2018/08/16 11:00 CWGL 161100Z AUTO 09005KT 19/18 RMK AO1 SLP168 T01850177 53010
 
CWWZ - Port Weller Airport, Ontario, Canada
Distance from station: SSW 77km
Updated: 16/08/2018 07:00

 Wind from SSE
Wind: SSE 4 km/h
Temperature: 22°C
Dew Point: 21°C
Humidity: 94%
2018/08/16 11:00 CWWZ 161100Z AUTO 16002KT 22/21 RMK AO1 SLP167 T02230208 53010
CYSN - St.Catharines Niagara Airport, Ontario, Canada
Distance from station: SSW 81km
Updated: 16/08/2018 07:00
Mist, Overcast
Mist, Overcast
 Wind from S
Wind: S 9 km/h
Temperature: 21°C
Dew Point: 21°C
Humidity: 100%
Barometer: 1016.6 hPa
Summary: Mist
Clouds: Overcast
Visibility: 8 km
Cloud details: Partly cloudy 1280 m
Overcast 7620 m
2018/08/16 11:00 CYSN 161100Z 18005KT 5SM BR SCT042 OVC250 21/21 A3002 RMK SC3CI5 SLP165 DENSITY ALT 1000FT
This data is offered only as a general guide to local weather conditions. It should not be relied upon in lieu of officially disseminated weather information for determining possible risk to persons or property. This site, including all information contained therein, is made available as is without warranties of any kind, either express or implied. The Vicarage Weather Feed© includes links to other sites for user convenience only. The content of any linked third-party site is not controlled by The Vicarage Weather Feed©. Access to any third-party website through The Vicarage Weather Feed©, regardless of whether or not the third-party site is a linked site, is entirely at the users own risk. Externally sourced content or material is excluded from The Vicarage Weather Feed© copyright and is the copyright and property of the respective provider. Skywarn® and the Skywarn® logo are registered trademarks of the National Oceanic and Atmospheric Administration, used with permission.